sensor_id;sensor_type;location;lat;lon;timestamp;pressure;altitude;pressure_sealevel;temperature;humidity
43707;BME280;61348;53.392;-6.248;2022-11-03T00:01:11;99230.69;;;7.81;89.07
43707;BME280;61348;53.392;-6.248;2022-11-03T00:03:38;99236.94;;;7.78;89.28
43707;BME280;61348;53.392;-6.248;2022-11-03T00:06:05;99240.81;;;7.77;89.24
43707;BME280;61348;53.392;-6.248;2022-11-03T00:08:40;99243.16;;;7.75;89.20
43707;BME280;61348;53.392;-6.248;2022-11-03T00:11:10;99234.81;;;7.71;89.29
43707;BME280;61348;53.392;-6.248;2022-11-03T00:13:38;99236.41;;;7.72;89.26
43707;BME280;61348;53.392;-6.248;2022-11-03T00:16:06;99244.69;;;7.72;89.14
43707;BME280;61348;53.392;-6.248;2022-11-03T00:18:34;99241.13;;;7.72;89.16
43707;BME280;61348;53.392;-6.248;2022-11-03T00:21:06;99241.50;;;7.70;89.11
43707;BME280;61348;53.392;-6.248;2022-11-03T00:23:38;99246.53;;;7.68;88.93
43707;BME280;61348;53.392;-6.248;2022-11-03T00:26:25;99240.97;;;7.65;89.00
43707;BME280;61348;53.392;-6.248;2022-11-03T00:28:54;99241.34;;;7.63;89.00
43707;BME280;61348;53.392;-6.248;2022-11-03T00:31:23;99236.53;;;7.60;89.00
43707;BME280;61348;53.392;-6.248;2022-11-03T00:33:50;99236.13;;;7.58;89.16
43707;BME280;61348;53.392;-6.248;2022-11-03T00:36:19;99234.50;;;7.57;88.99
43707;BME280;61348;53.392;-6.248;2022-11-03T00:38:46;99228.56;;;7.55;89.09
43707;BME280;61348;53.392;-6.248;2022-11-03T00:41:14;99227.00;;;7.54;89.10
43707;BME280;61348;53.392;-6.248;2022-11-03T00:43:41;99211.19;;;7.51;89.28
43707;BME280;61348;53.392;-6.248;2022-11-03T00:46:08;99213.94;;;7.51;89.03
43707;BME280;61348;53.392;-6.248;2022-11-03T00:48:36;99217.03;;;7.50;89.04
43707;BME280;61348;53.392;-6.248;2022-11-03T00:56:23;99211.47;;;7.46;88.90
43707;BME280;61348;53.392;-6.248;2022-11-03T00:58:52;99199.25;;;7.44;88.96
43707;BME280;61348;53.392;-6.248;2022-11-03T01:01:21;99196.81;;;7.42;88.90
43707;BME280;61348;53.392;-6.248;2022-11-03T01:03:51;99194.06;;;7.42;88.81
43707;BME280;61348;53.392;-6.248;2022-11-03T01:06:39;99200.75;;;7.41;88.62
43707;BME280;61348;53.392;-6.248;2022-11-03T01:12:01;99199.88;;;7.37;88.43
43707;BME280;61348;53.392;-6.248;2022-11-03T01:14:32;99194.28;;;7.33;88.33
43707;BME280;61348;53.392;-6.248;2022-11-03T01:17:03;99191.91;;;7.32;88.45
43707;BME280;61348;53.392;-6.248;2022-11-03T01:19:29;99183.22;;;7.30;88.38
43707;BME280;61348;53.392;-6.248;2022-11-03T01:21:56;99182.31;;;7.26;88.30
43707;BME280;61348;53.392;-6.248;2022-11-03T01:24:23;99177.63;;;7.26;88.30
43707;BME280;61348;53.392;-6.248;2022-11-03T01:26:49;99172.50;;;7.25;88.21
43707;BME280;61348;53.392;-6.248;2022-11-03T01:29:16;99172.50;;;7.25;88.13
43707;BME280;61348;53.392;-6.248;2022-11-03T01:31:43;99157.94;;;7.24;87.96
43707;BME280;61348;53.392;-6.248;2022-11-03T01:34:18;99144.50;;;7.23;87.99
43707;BME280;61348;53.392;-6.248;2022-11-03T01:36:45;99155.16;;;7.24;88.02
43707;BME280;61348;53.392;-6.248;2022-11-03T01:39:15;99147.25;;;7.23;87.84
43707;BME280;61348;53.392;-6.248;2022-11-03T01:41:44;99152.00;;;7.22;87.90
43707;BME280;61348;53.392;-6.248;2022-11-03T01:46:48;99141.31;;;7.21;87.58
43707;BME280;61348;53.392;-6.248;2022-11-03T01:49:23;99136.63;;;7.21;87.63
43707;BME280;61348;53.392;-6.248;2022-11-03T01:51:55;99144.09;;;7.21;87.51
43707;BME280;61348;53.392;-6.248;2022-11-03T01:54:25;99133.06;;;7.21;87.55
43707;BME280;61348;53.392;-6.248;2022-11-03T01:56:54;99134.59;;;7.18;87.46
43707;BME280;61348;53.392;-6.248;2022-11-03T01:59:22;99134.97;;;7.17;87.42
43707;BME280;61348;53.392;-6.248;2022-11-03T02:01:50;99138.88;;;7.16;87.29
43707;BME280;61348;53.392;-6.248;2022-11-03T02:04:22;99135.69;;;7.14;87.35
43707;BME280;61348;53.392;-6.248;2022-11-03T02:07:00;99127.78;;;7.12;87.57
43707;BME280;61348;53.392;-6.248;2022-11-03T02:09:29;99134.78;;;7.10;87.45
43707;BME280;61348;53.392;-6.248;2022-11-03T02:11:56;99130.81;;;7.07;87.60
43707;BME280;61348;53.392;-6.248;2022-11-03T02:14:35;99130.81;;;7.07;87.41
43707;BME280;61348;53.392;-6.248;2022-11-03T02:17:06;99128.44;;;7.06;87.32
43707;BME280;61348;53.392;-6.248;2022-11-03T02:19:43;99135.47;;;7.03;87.37
43707;BME280;61348;53.392;-6.248;2022-11-03T02:27:39;99121.47;;;6.93;87.44
43707;BME280;61348;53.392;-6.248;2022-11-03T02:30:07;99120.25;;;6.90;87.64
43707;BME280;61348;53.392;-6.248;2022-11-03T02:32:46;99117.41;;;6.87;87.55
43707;BME280;61348;53.392;-6.248;2022-11-03T02:37:51;99120.72;;;6.77;87.66
43707;BME280;61348;53.392;-6.248;2022-11-03T02:40:24;99130.84;;;6.72;88.04
43707;BME280;61348;53.392;-6.248;2022-11-03T02:42:53;99125.28;;;6.69;87.68
43707;BME280;61348;53.392;-6.248;2022-11-03T02:45:24;99125.19;;;6.65;87.87
43707;BME280;61348;53.392;-6.248;2022-11-03T02:47:54;99139.22;;;6.60;87.78
43707;BME280;61348;53.392;-6.248;2022-11-03T02:50:27;99125.75;;;6.55;87.94
43707;BME280;61348;53.392;-6.248;2022-11-03T02:52:55;99130.09;;;6.56;87.96
43707;BME280;61348;53.392;-6.248;2022-11-03T02:55:41;99126.44;;;6.52;88.17
43707;BME280;61348;53.392;-6.248;2022-11-03T02:58:20;99138.59;;;6.51;88.13
43707;BME280;61348;53.392;-6.248;2022-11-03T03:01:00;99127.97;;;6.50;88.41
43707;BME280;61348;53.392;-6.248;2022-11-03T03:03:34;99131.09;;;6.48;88.48
43707;BME280;61348;53.392;-6.248;2022-11-03T03:06:11;99130.28;;;6.48;88.30
43707;BME280;61348;53.392;-6.248;2022-11-03T03:08:43;99125.13;;;6.46;88.23
43707;BME280;61348;53.392;-6.248;2022-11-03T03:11:12;99128.69;;;6.47;88.11
43707;BME280;61348;53.392;-6.248;2022-11-03T03:13:41;99124.84;;;6.51;88.17
43707;BME280;61348;53.392;-6.248;2022-11-03T03:16:39;99110.38;;;6.54;88.26
43707;BME280;61348;53.392;-6.248;2022-11-03T03:21:56;99101.44;;;6.57;88.00
43707;BME280;61348;53.392;-6.248;2022-11-03T03:27:00;99091.59;;;6.56;87.76
43707;BME280;61348;53.392;-6.248;2022-11-03T03:29:35;99078.63;;;6.57;87.91
43707;BME280;61348;53.392;-6.248;2022-11-03T03:32:06;99072.00;;;6.58;87.83
43707;BME280;61348;53.392;-6.248;2022-11-03T03:34:36;99075.97;;;6.60;87.50
43707;BME280;61348;53.392;-6.248;2022-11-03T03:37:05;99070.91;;;6.62;87.55
43707;BME280;61348;53.392;-6.248;2022-11-03T03:39:37;99068.16;;;6.62;87.49
43707;BME280;61348;53.392;-6.248;2022-11-03T03:42:07;99072.50;;;6.63;87.30
43707;BME280;61348;53.392;-6.248;2022-11-03T03:44:36;99063.81;;;6.61;87.25
43707;BME280;61348;53.392;-6.248;2022-11-03T03:47:19;99059.47;;;6.60;87.55
43707;BME280;61348;53.392;-6.248;2022-11-03T03:49:47;99054.34;;;6.59;87.32
43707;BME280;61348;53.392;-6.248;2022-11-03T03:52:14;99048.75;;;6.55;87.30
43707;BME280;61348;53.392;-6.248;2022-11-03T03:54:41;99052.66;;;6.54;87.36
43707;BME280;61348;53.392;-6.248;2022-11-03T03:57:12;99056.59;;;6.53;87.33
43707;BME280;61348;53.392;-6.248;2022-11-03T03:59:42;99055.78;;;6.53;87.20
43707;BME280;61348;53.392;-6.248;2022-11-03T04:02:09;99048.25;;;6.50;87.28
43707;BME280;61348;53.392;-6.248;2022-11-03T04:04:37;99052.50;;;6.47;87.28
43707;BME280;61348;53.392;-6.248;2022-11-03T04:07:04;99044.97;;;6.44;87.38
43707;BME280;61348;53.392;-6.248;2022-11-03T04:09:49;99044.53;;;6.42;87.35
43707;BME280;61348;53.392;-6.248;2022-11-03T04:12:16;99051.56;;;6.40;87.35
43707;BME280;61348;53.392;-6.248;2022-11-03T04:15:03;99054.66;;;6.38;87.46
43707;BME280;61348;53.392;-6.248;2022-11-03T04:17:48;99048.72;;;6.36;87.50
43707;BME280;61348;53.392;-6.248;2022-11-03T04:20:34;99047.84;;;6.32;87.28
43707;BME280;61348;53.392;-6.248;2022-11-03T04:23:19;99045.81;;;6.29;87.53
43707;BME280;61348;53.392;-6.248;2022-11-03T04:25:49;99047.34;;;6.27;87.48
43707;BME280;61348;53.392;-6.248;2022-11-03T04:28:16;99050.41;;;6.25;87.69
43707;BME280;61348;53.392;-6.248;2022-11-03T04:30:43;99041.75;;;6.23;87.63
43707;BME280;61348;53.392;-6.248;2022-11-03T04:33:13;99036.25;;;6.23;87.54
43707;BME280;61348;53.392;-6.248;2022-11-03T04:35:41;99034.59;;;6.19;87.63
43707;BME280;61348;53.392;-6.248;2022-11-03T04:40:44;99036.09;;;6.16;87.87
43707;BME280;61348;53.392;-6.248;2022-11-03T04:43:18;99047.88;;;6.17;87.90
43707;BME280;61348;53.392;-6.248;2022-11-03T04:45:46;99050.97;;;6.15;87.97
43707;BME280;61348;53.392;-6.248;2022-11-03T04:48:23;99056.47;;;6.15;88.05
43707;BME280;61348;53.392;-6.248;2022-11-03T04:50:55;99056.47;;;6.15;88.01
43707;BME280;61348;53.392;-6.248;2022-11-03T04:53:27;99043.91;;;6.14;88.11
43707;BME280;61348;53.392;-6.248;2022-11-03T04:55:55;99060.72;;;6.12;88.07
43707;BME280;61348;53.392;-6.248;2022-11-03T04:58:23;99059.50;;;6.10;88.06
43707;BME280;61348;53.392;-6.248;2022-11-03T05:00:53;99059.88;;;6.08;88.10
43707;BME280;61348;53.392;-6.248;2022-11-03T05:03:25;99069.69;;;6.09;88.20
43707;BME280;61348;53.392;-6.248;2022-11-03T05:05:53;99072.09;;;6.11;88.29
43707;BME280;61348;53.392;-6.248;2022-11-03T05:08:20;99076.78;;;6.10;88.16
43707;BME280;61348;53.392;-6.248;2022-11-03T05:10:48;99070.91;;;6.12;88.18
43707;BME280;61348;53.392;-6.248;2022-11-03T05:13:22;99064.28;;;6.13;88.29
43707;BME280;61348;53.392;-6.248;2022-11-03T05:15:51;99057.66;;;6.14;88.07
43707;BME280;61348;53.392;-6.248;2022-11-03T05:18:28;99063.91;;;6.14;88.08
43707;BME280;61348;53.392;-6.248;2022-11-03T05:23:38;99056.13;;;6.17;88.14
43707;BME280;61348;53.392;-6.248;2022-11-03T05:26:11;99067.47;;;6.15;87.78
43707;BME280;61348;53.392;-6.248;2022-11-03T05:28:41;99063.47;;;6.12;87.85
43707;BME280;61348;53.392;-6.248;2022-11-03T05:31:23;99057.88;;;6.09;88.08
43707;BME280;61348;53.392;-6.248;2022-11-03T05:33:52;99061.38;;;6.06;87.94
43707;BME280;61348;53.392;-6.248;2022-11-03T05:36:21;99058.97;;;6.04;88.08
43707;BME280;61348;53.392;-6.248;2022-11-03T05:38:49;99059.34;;;6.03;87.88
43707;BME280;61348;53.392;-6.248;2022-11-03T05:41:22;99056.16;;;6.01;87.97
43707;BME280;61348;53.392;-6.248;2022-11-03T05:43:58;99054.13;;;5.98;87.93
43707;BME280;61348;53.392;-6.248;2022-11-03T05:46:30;99045.78;;;5.94;87.86
43707;BME280;61348;53.392;-6.248;2022-11-03T05:49:01;99051.19;;;5.91;87.95
43707;BME280;61348;53.392;-6.248;2022-11-03T05:51:33;99052.69;;;5.88;88.07
43707;BME280;61348;53.392;-6.248;2022-11-03T05:54:03;99047.81;;;5.82;87.99
43707;BME280;61348;53.392;-6.248;2022-11-03T05:56:33;99043.88;;;5.83;88.42
43707;BME280;61348;53.392;-6.248;2022-11-03T05:59:00;99048.50;;;5.79;88.23
43707;BME280;61348;53.392;-6.248;2022-11-03T06:01:33;99044.41;;;5.73;88.35
43707;BME280;61348;53.392;-6.248;2022-11-03T06:04:28;99031.22;;;5.63;88.67
43707;BME280;61348;53.392;-6.248;2022-11-03T06:07:00;99030.09;;;5.64;88.68
43707;BME280;61348;53.392;-6.248;2022-11-03T06:09:28;99028.47;;;5.63;88.54
43707;BME280;61348;53.392;-6.248;2022-11-03T06:11:56;99023.34;;;5.61;88.55
43707;BME280;61348;53.392;-6.248;2022-11-03T06:14:25;99017.41;;;5.59;88.68
43707;BME280;61348;53.392;-6.248;2022-11-03T06:17:03;99008.72;;;5.57;88.77
43707;BME280;61348;53.392;-6.248;2022-11-03T06:22:14;99007.75;;;5.49;88.76
43707;BME280;61348;53.392;-6.248;2022-11-03T06:24:42;99013.25;;;5.49;88.95
43707;BME280;61348;53.392;-6.248;2022-11-03T06:27:13;99011.66;;;5.48;88.73
43707;BME280;61348;53.392;-6.248;2022-11-03T06:29:46;99006.41;;;5.43;88.96
43707;BME280;61348;53.392;-6.248;2022-11-03T06:32:14;98998.63;;;5.45;89.34
43707;BME280;61348;53.392;-6.248;2022-11-03T06:34:44;99012.44;;;5.49;88.88
43707;BME280;61348;53.392;-6.248;2022-11-03T06:39:42;99013.34;;;5.53;88.83
43707;BME280;61348;53.392;-6.248;2022-11-03T06:42:13;99007.13;;;5.56;88.89
43707;BME280;61348;53.392;-6.248;2022-11-03T06:44:42;99009.53;;;5.58;88.89
43707;BME280;61348;53.392;-6.248;2022-11-03T06:47:27;99001.03;;;5.63;88.95
43707;BME280;61348;53.392;-6.248;2022-11-03T06:49:58;99009.38;;;5.66;88.86
43707;BME280;61348;53.392;-6.248;2022-11-03T06:52:30;99006.69;;;5.70;88.52
43707;BME280;61348;53.392;-6.248;2022-11-03T06:57:45;99003.34;;;5.76;88.57
43707;BME280;61348;53.392;-6.248;2022-11-03T07:00:23;99011.66;;;5.80;88.70
43707;BME280;61348;53.392;-6.248;2022-11-03T07:03:16;98998.38;;;5.82;88.61
43707;BME280;61348;53.392;-6.248;2022-11-03T07:05:46;98994.44;;;5.83;88.63
43707;BME280;61348;53.392;-6.248;2022-11-03T07:08:23;98991.03;;;5.86;88.56
43707;BME280;61348;53.392;-6.248;2022-11-03T07:11:14;98995.81;;;5.89;88.16
43707;BME280;61348;53.392;-6.248;2022-11-03T07:13:41;98991.94;;;5.90;88.26
43707;BME280;61348;53.392;-6.248;2022-11-03T07:16:32;98982.16;;;5.92;88.15
43707;BME280;61348;53.392;-6.248;2022-11-03T07:19:02;98981.81;;;5.94;88.17
43707;BME280;61348;53.392;-6.248;2022-11-03T07:21:57;98982.97;;;5.93;88.33
43707;BME280;61348;53.392;-6.248;2022-11-03T07:24:33;98977.13;;;5.94;88.25
43707;BME280;61348;53.392;-6.248;2022-11-03T07:29:36;98973.56;;;5.94;88.18
43707;BME280;61348;53.392;-6.248;2022-11-03T07:32:08;98969.59;;;5.91;88.11
43707;BME280;61348;53.392;-6.248;2022-11-03T07:34:37;98972.69;;;5.90;88.21
43707;BME280;61348;53.392;-6.248;2022-11-03T07:37:03;98970.66;;;5.87;88.13
43707;BME280;61348;53.392;-6.248;2022-11-03T07:39:34;98971.00;;;5.85;88.24
43707;BME280;61348;53.392;-6.248;2022-11-03T07:42:12;98968.59;;;5.84;88.09
43707;BME280;61348;53.392;-6.248;2022-11-03T07:44:40;98966.22;;;5.82;88.34
43707;BME280;61348;53.392;-6.248;2022-11-03T07:47:17;98965.41;;;5.82;88.42
43707;BME280;61348;53.392;-6.248;2022-11-03T07:49:45;98969.56;;;5.76;87.95
43707;BME280;61348;53.392;-6.248;2022-11-03T07:52:19;98965.50;;;5.70;88.38
43707;BME280;61348;53.392;-6.248;2022-11-03T07:54:46;98963.94;;;5.69;88.32
43707;BME280;61348;53.392;-6.248;2022-11-03T07:57:23;98959.59;;;5.68;88.51
43707;BME280;61348;53.392;-6.248;2022-11-03T07:59:55;98961.88;;;5.66;88.63
43707;BME280;61348;53.392;-6.248;2022-11-03T08:04:59;98961.19;;;5.69;88.75
43707;BME280;61348;53.392;-6.248;2022-11-03T08:07:27;98955.69;;;5.69;88.69
43707;BME280;61348;53.392;-6.248;2022-11-03T08:09:53;98962.00;;;5.69;88.48
43707;BME280;61348;53.392;-6.248;2022-11-03T08:12:20;98962.06;;;5.73;88.76
43707;BME280;61348;53.392;-6.248;2022-11-03T08:14:47;98968.34;;;5.73;88.60
43707;BME280;61348;53.392;-6.248;2022-11-03T08:17:14;98962.94;;;5.77;88.51
43707;BME280;61348;53.392;-6.248;2022-11-03T08:19:41;98972.75;;;5.78;88.62
43707;BME280;61348;53.392;-6.248;2022-11-03T08:22:08;98963.47;;;5.82;88.80
43707;BME280;61348;53.392;-6.248;2022-11-03T08:24:34;98967.91;;;5.87;88.69
43707;BME280;61348;53.392;-6.248;2022-11-03T08:27:01;98971.91;;;5.89;88.61
43707;BME280;61348;53.392;-6.248;2022-11-03T08:29:28;98960.53;;;5.91;88.67
43707;BME280;61348;53.392;-6.248;2022-11-03T08:31:55;98958.69;;;5.95;88.54
43707;BME280;61348;53.392;-6.248;2022-11-03T08:34:22;98950.88;;;5.97;88.55
43707;BME280;61348;53.392;-6.248;2022-11-03T08:36:49;98955.66;;;6.00;88.58
43707;BME280;61348;53.392;-6.248;2022-11-03T08:39:15;98945.09;;;6.02;88.67
43707;BME280;61348;53.392;-6.248;2022-11-03T08:41:42;98955.38;;;6.05;88.64
43707;BME280;61348;53.392;-6.248;2022-11-03T08:44:09;98953.50;;;6.09;88.74
43707;BME280;61348;53.392;-6.248;2022-11-03T08:46:36;98945.00;;;6.14;88.58
43707;BME280;61348;53.392;-6.248;2022-11-03T08:49:02;98941.97;;;6.19;88.81
43707;BME280;61348;53.392;-6.248;2022-11-03T08:51:29;98949.91;;;6.24;88.56
43707;BME280;61348;53.392;-6.248;2022-11-03T08:53:56;98948.84;;;6.29;88.49
43707;BME280;61348;53.392;-6.248;2022-11-03T08:56:22;98947.75;;;6.33;88.65
43707;BME280;61348;53.392;-6.248;2022-11-03T08:58:50;98949.84;;;6.40;88.73
43707;BME280;61348;53.392;-6.248;2022-11-03T09:01:17;98955.88;;;6.45;88.71
43707;BME280;61348;53.392;-6.248;2022-11-03T09:03:45;98946.16;;;6.51;88.60
43707;BME280;61348;53.392;-6.248;2022-11-03T09:06:12;98941.16;;;6.57;88.75
43707;BME280;61348;53.392;-6.248;2022-11-03T09:08:39;98944.41;;;6.62;88.43
43707;BME280;61348;53.392;-6.248;2022-11-03T09:11:25;98947.69;;;6.68;88.38
43707;BME280;61348;53.392;-6.248;2022-11-03T09:13:53;98943.47;;;6.74;88.40
43707;BME280;61348;53.392;-6.248;2022-11-03T09:16:19;98945.13;;;6.79;88.41
43707;BME280;61348;53.392;-6.248;2022-11-03T09:18:46;98943.25;;;6.83;88.20
43707;BME280;61348;53.392;-6.248;2022-11-03T09:21:13;98942.97;;;6.88;88.46
43707;BME280;61348;53.392;-6.248;2022-11-03T09:23:40;98944.22;;;6.94;88.34
43707;BME280;61348;53.392;-6.248;2022-11-03T09:26:07;98941.22;;;6.99;88.48
43707;BME280;61348;53.392;-6.248;2022-11-03T09:28:33;98932.28;;;7.05;88.44
43707;BME280;61348;53.392;-6.248;2022-11-03T09:31:00;98926.88;;;7.12;88.24
43707;BME280;61348;53.392;-6.248;2022-11-03T09:33:27;98934.06;;;7.17;88.20
43707;BME280;61348;53.392;-6.248;2022-11-03T09:35:53;98938.84;;;7.20;88.16
43707;BME280;61348;53.392;-6.248;2022-11-03T09:38:20;98933.03;;;7.25;88.07
43707;BME280;61348;53.392;-6.248;2022-11-03T09:40:47;98935.06;;;7.28;88.21
43707;BME280;61348;53.392;-6.248;2022-11-03T09:43:18;98924.09;;;7.31;88.18
43707;BME280;61348;53.392;-6.248;2022-11-03T09:45:45;98928.47;;;7.36;88.12
43707;BME280;61348;53.392;-6.248;2022-11-03T09:48:12;98925.88;;;7.43;88.17
43707;BME280;61348;53.392;-6.248;2022-11-03T09:50:39;98925.56;;;7.48;87.92
43707;BME280;61348;53.392;-6.248;2022-11-03T09:53:10;98927.19;;;7.53;87.97
43707;BME280;61348;53.392;-6.248;2022-11-03T09:55:38;98928.81;;;7.57;87.86
43707;BME280;61348;53.392;-6.248;2022-11-03T09:58:13;98917.53;;;7.62;87.90
43707;BME280;61348;53.392;-6.248;2022-11-03T10:00:41;98918.38;;;7.66;87.87
43707;BME280;61348;53.392;-6.248;2022-11-03T10:03:12;98920.38;;;7.69;87.76
43707;BME280;61348;53.392;-6.248;2022-11-03T10:05:39;98917.69;;;7.73;87.80
43707;BME280;61348;53.392;-6.248;2022-11-03T10:10:49;98924.50;;;7.82;87.67
43707;BME280;61348;53.392;-6.248;2022-11-03T10:13:44;98924.59;;;7.89;87.59
43707;BME280;61348;53.392;-6.248;2022-11-03T10:16:17;98934.16;;;7.95;87.48
43707;BME280;61348;53.392;-6.248;2022-11-03T10:18:46;98938.91;;;7.98;87.49
43707;BME280;61348;53.392;-6.248;2022-11-03T10:21:24;98939.75;;;8.03;87.39
43707;BME280;61348;53.392;-6.248;2022-11-03T10:23:52;98937.47;;;8.08;87.29
43707;BME280;61348;53.392;-6.248;2022-11-03T10:26:19;98930.47;;;8.14;87.13
43707;BME280;61348;53.392;-6.248;2022-11-03T10:29:05;98921.09;;;8.19;87.08
43707;BME280;61348;53.392;-6.248;2022-11-03T10:31:39;98919.13;;;8.19;87.01
43707;BME280;61348;53.392;-6.248;2022-11-03T10:36:49;98917.34;;;8.30;86.99
43707;BME280;61348;53.392;-6.248;2022-11-03T10:39:28;98915.84;;;8.36;86.92
43707;BME280;61348;53.392;-6.248;2022-11-03T10:41:57;98909.19;;;8.41;86.62
43707;BME280;61348;53.392;-6.248;2022-11-03T10:44:28;98907.25;;;8.45;86.63
43707;BME280;61348;53.392;-6.248;2022-11-03T10:46:57;98908.13;;;8.49;86.44
43707;BME280;61348;53.392;-6.248;2022-11-03T10:49:31;98902.25;;;8.54;86.44
43707;BME280;61348;53.392;-6.248;2022-11-03T10:52:14;98899.59;;;8.61;86.04
43707;BME280;61348;53.392;-6.248;2022-11-03T10:54:44;98904.34;;;8.64;85.99
43707;BME280;61348;53.392;-6.248;2022-11-03T10:57:11;98909.16;;;8.71;85.85
43707;BME280;61348;53.392;-6.248;2022-11-03T10:59:38;98903.66;;;8.74;85.81
43707;BME280;61348;53.392;-6.248;2022-11-03T11:02:17;98902.13;;;8.77;85.63
43707;BME280;61348;53.392;-6.248;2022-11-03T11:04:46;98895.84;;;8.80;85.46
43707;BME280;61348;53.392;-6.248;2022-11-03T11:07:25;98893.13;;;8.83;85.19
43707;BME280;61348;53.392;-6.248;2022-11-03T11:09:54;98888.03;;;8.85;85.26
43707;BME280;61348;53.392;-6.248;2022-11-03T11:12:24;98884.91;;;8.87;85.17
43707;BME280;61348;53.392;-6.248;2022-11-03T11:15:01;98893.59;;;8.92;84.79
43707;BME280;61348;53.392;-6.248;2022-11-03T11:17:44;98875.88;;;8.93;84.86
43707;BME280;61348;53.392;-6.248;2022-11-03T11:22:44;98873.97;;;9.01;84.39
43707;BME280;61348;53.392;-6.248;2022-11-03T11:25:11;98867.31;;;9.02;84.03
43707;BME280;61348;53.392;-6.248;2022-11-03T11:30:07;98862.59;;;9.06;83.93
43707;BME280;61348;53.392;-6.248;2022-11-03T11:33:00;98864.59;;;9.09;83.85
43707;BME280;61348;53.392;-6.248;2022-11-03T11:37:53;98865.44;;;9.13;83.71
43707;BME280;61348;53.392;-6.248;2022-11-03T11:48:35;98860.91;;;9.38;83.62
43707;BME280;61348;53.392;-6.248;2022-11-03T11:51:02;98860.94;;;9.45;83.52
43707;BME280;61348;53.392;-6.248;2022-11-03T11:53:37;98852.34;;;9.54;83.29
43707;BME280;61348;53.392;-6.248;2022-11-03T11:56:08;98847.63;;;9.58;83.30
43707;BME280;61348;53.392;-6.248;2022-11-03T11:58:37;98843.31;;;9.64;83.21
43707;BME280;61348;53.392;-6.248;2022-11-03T12:01:26;98841.38;;;9.68;82.91
43707;BME280;61348;53.392;-6.248;2022-11-03T12:03:58;98839.03;;;9.70;82.86
43707;BME280;61348;53.392;-6.248;2022-11-03T12:06:37;98841.81;;;9.73;82.78
43707;BME280;61348;53.392;-6.248;2022-11-03T12:17:37;98840.75;;;9.92;82.31
43707;BME280;61348;53.392;-6.248;2022-11-03T12:20:34;98838.41;;;10.01;81.70
43707;BME280;61348;53.392;-6.248;2022-11-03T12:23:02;98845.53;;;10.02;81.72
43707;BME280;61348;53.392;-6.248;2022-11-03T12:25:36;98844.72;;;10.02;81.54
43707;BME280;61348;53.392;-6.248;2022-11-03T12:28:05;98836.84;;;10.00;81.42
43707;BME280;61348;53.392;-6.248;2022-11-03T12:30:32;98837.59;;;9.97;81.47
43707;BME280;61348;53.392;-6.248;2022-11-03T12:33:05;98847.47;;;9.98;81.30
43707;BME280;61348;53.392;-6.248;2022-11-03T12:35:32;98830.47;;;9.96;81.40
43707;BME280;61348;53.392;-6.248;2022-11-03T12:37:59;98839.97;;;9.95;81.38
43707;BME280;61348;53.392;-6.248;2022-11-03T12:40:27;98839.97;;;9.95;81.51
43707;BME280;61348;53.392;-6.248;2022-11-03T12:42:53;98836.78;;;9.93;81.36
43707;BME280;61348;53.392;-6.248;2022-11-03T12:45:20;98824.16;;;9.92;81.49
43707;BME280;61348;53.392;-6.248;2022-11-03T12:47:46;98826.50;;;9.90;81.42
43707;BME280;61348;53.392;-6.248;2022-11-03T12:50:16;98820.19;;;9.90;81.53
43707;BME280;61348;53.392;-6.248;2022-11-03T12:52:43;98824.94;;;9.89;81.37
43707;BME280;61348;53.392;-6.248;2022-11-03T12:55:09;98817.81;;;9.88;81.65
43707;BME280;61348;53.392;-6.248;2022-11-03T12:57:36;98819.75;;;9.88;81.67
43707;BME280;61348;53.392;-6.248;2022-11-03T13:00:03;98819.41;;;9.89;81.67
43707;BME280;61348;53.392;-6.248;2022-11-03T13:02:32;98817.03;;;9.91;81.61
43707;BME280;61348;53.392;-6.248;2022-11-03T13:04:59;98805.19;;;9.94;81.53
43707;BME280;61348;53.392;-6.248;2022-11-03T13:07:26;98806.78;;;9.99;81.61
43707;BME280;61348;53.392;-6.248;2022-11-03T13:10:00;98813.94;;;10.03;81.45
43707;BME280;61348;53.392;-6.248;2022-11-03T13:12:26;98811.56;;;10.05;81.70
43707;BME280;61348;53.392;-6.248;2022-11-03T13:15:05;98800.16;;;10.10;81.56
43707;BME280;61348;53.392;-6.248;2022-11-03T13:17:31;98807.25;;;10.11;81.62
43707;BME280;61348;53.392;-6.248;2022-11-03T13:20:19;98805.31;;;10.15;81.57
43707;BME280;61348;53.392;-6.248;2022-11-03T13:22:46;98799.03;;;10.18;81.51
43707;BME280;61348;53.392;-6.248;2022-11-03T13:25:12;98797.47;;;10.24;81.50
43707;BME280;61348;53.392;-6.248;2022-11-03T13:27:39;98795.91;;;10.27;81.34
43707;BME280;61348;53.392;-6.248;2022-11-03T13:30:06;98798.66;;;10.30;81.25
43707;BME280;61348;53.392;-6.248;2022-11-03T13:32:33;98803.81;;;10.32;81.01
43707;BME280;61348;53.392;-6.248;2022-11-03T13:35:00;98794.31;;;10.33;81.02
43707;BME280;61348;53.392;-6.248;2022-11-03T13:37:27;98790.38;;;10.34;80.82
43707;BME280;61348;53.392;-6.248;2022-11-03T13:39:54;98792.75;;;10.35;80.80
43707;BME280;61348;53.392;-6.248;2022-11-03T13:42:21;98788.00;;;10.36;80.69
43707;BME280;61348;53.392;-6.248;2022-11-03T13:44:47;98786.03;;;10.36;80.52
43707;BME280;61348;53.392;-6.248;2022-11-03T13:47:14;98791.97;;;10.35;80.54
43707;BME280;61348;53.392;-6.248;2022-11-03T13:49:41;98799.84;;;10.33;80.47
43707;BME280;61348;53.392;-6.248;2022-11-03T13:52:28;98800.22;;;10.28;80.46
43707;BME280;61348;53.392;-6.248;2022-11-03T13:54:54;98782.03;;;10.23;80.40
43707;BME280;61348;53.392;-6.248;2022-11-03T13:57:41;98792.28;;;10.19;80.43
43707;BME280;61348;53.392;-6.248;2022-11-03T14:00:28;98787.16;;;10.18;80.26
43707;BME280;61348;53.392;-6.248;2022-11-03T14:02:55;98780.44;;;10.15;80.40
43707;BME280;61348;53.392;-6.248;2022-11-03T14:05:42;98787.56;;;10.16;80.38
43707;BME280;61348;53.392;-6.248;2022-11-03T14:08:09;98787.56;;;10.16;80.26
43707;BME280;61348;53.392;-6.248;2022-11-03T14:10:37;98783.19;;;10.15;80.13
43707;BME280;61348;53.392;-6.248;2022-11-03T14:13:04;98786.38;;;10.14;79.96
43707;BME280;61348;53.392;-6.248;2022-11-03T14:15:31;98785.56;;;10.13;80.18
43707;BME280;61348;53.392;-6.248;2022-11-03T14:17:59;98780.38;;;10.12;80.10
43707;BME280;61348;53.392;-6.248;2022-11-03T14:20:26;98780.78;;;10.10;80.21
43707;BME280;61348;53.392;-6.248;2022-11-03T14:22:58;98780.78;;;10.10;80.19
43707;BME280;61348;53.392;-6.248;2022-11-03T14:25:24;98779.59;;;10.08;80.21
43707;BME280;61348;53.392;-6.248;2022-11-03T14:27:51;98771.66;;;10.06;80.05
43707;BME280;61348;53.392;-6.248;2022-11-03T14:30:18;98774.03;;;10.04;80.05
43707;BME280;61348;53.392;-6.248;2022-11-03T14:32:44;98772.88;;;10.05;80.07